Time;durP1;ratioP1;P1;durP2;ratioP2;P2;SDS_P1;SDS_P2;PMS_P1;PMS_P2;Temp;Humidity;BMP_temperature;BMP_pressure;BME280_temperature;BME280_humidity;BME280_pressure;Samples;Min_cycle;Max_cycle;Signal;HPM_P1;HPM_P2
2023/06/16 00:00:21;;;;;;;10.57;3.55;;;20.40;60.80;;;;;;5027694;28;20520;-79
2023/06/16 00:02:48;;;;;;;5.55;3.20;;;20.40;60.90;;;;;;5028283;28;20018;-78
2023/06/16 00:05:14;;;;;;;8.70;3.38;;;20.40;60.70;;;;;;5024787;28;20112;-78
2023/06/16 00:07:39;;;;;;;10.38;3.50;;;20.40;60.40;;;;;;5029146;28;20155;-78
2023/06/16 00:10:11;;;;;;;6.05;3.03;;;20.20;60.70;;;;;;5028404;28;20021;-78
2023/06/16 00:12:40;;;;;;;6.05;2.92;;;20.20;60.90;;;;;;5048760;28;20760;-78
2023/06/16 00:15:08;;;;;;;5.18;3.22;;;20.20;60.90;;;;;;5042023;28;20026;-78
2023/06/16 00:17:36;;;;;;;8.70;3.20;;;20.10;61.60;;;;;;5045036;28;20496;-78
2023/06/16 00:20:07;;;;;;;7.22;3.28;;;20.00;62.20;;;;;;5051988;28;20132;-78
2023/06/16 00:22:34;;;;;;;6.13;3.55;;;19.90;62.30;;;;;;5049036;28;20024;-78
2023/06/16 00:25:00;;;;;;;5.47;3.40;;;19.90;62.90;;;;;;5045911;28;20028;-78
2023/06/16 00:27:26;;;;;;;5.07;3.67;;;19.90;62.90;;;;;;5046982;28;20066;-78
2023/06/16 00:29:51;;;;;;;5.82;3.15;;;19.80;63.50;;;;;;5046203;28;20123;-78
2023/06/16 00:32:17;;;;;;;11.00;3.85;;;19.80;64.30;;;;;;5044264;28;20723;-78
2023/06/16 00:34:43;;;;;;;6.70;3.55;;;19.70;64.30;;;;;;5048236;28;20028;-78
2023/06/16 00:37:08;;;;;;;4.32;3.30;;;19.70;64.10;;;;;;5042389;28;20044;-77
2023/06/16 00:39:34;;;;;;;6.43;3.80;;;19.70;64.60;;;;;;5044012;28;20872;-79
2023/06/16 00:42:02;;;;;;;8.25;3.80;;;19.70;65.10;;;;;;5046892;28;20615;-78
2023/06/16 00:44:27;;;;;;;7.05;3.83;;;19.70;65.00;;;;;;5051192;28;20021;-79
2023/06/16 00:46:54;;;;;;;7.07;3.80;;;19.70;65.40;;;;;;5045273;28;20448;-79
2023/06/16 00:49:20;;;;;;;5.28;3.75;;;19.70;65.00;;;;;;5045927;28;20032;-79
2023/06/16 00:51:48;;;;;;;6.07;3.30;;;19.50;64.60;;;;;;5048862;28;20028;-78
2023/06/16 00:54:16;;;;;;;12.30;3.47;;;19.50;64.50;;;;;;5047174;28;20158;-78
2023/06/16 00:56:45;;;;;;;4.07;3.72;;;19.50;64.40;;;;;;5051104;28;20108;-79
2023/06/16 00:59:13;;;;;;;5.07;3.40;;;19.40;64.30;;;;;;5053137;28;20041;-79
2023/06/16 01:01:39;;;;;;;4.78;3.53;;;19.40;64.50;;;;;;5048880;28;20051;-79
2023/06/16 01:04:07;;;;;;;4.30;3.60;;;19.30;64.50;;;;;;5062268;28;20412;-78
2023/06/16 01:06:41;;;;;;;6.20;4.18;;;19.30;64.70;;;;;;5054233;28;20205;-78
2023/06/16 01:09:42;;;;;;;5.18;3.63;;;19.30;64.90;;;;;;5048927;28;20025;-79
2023/06/16 01:12:23;;;;;;;6.15;4.15;;;19.30;65.10;;;;;;5048296;28;20024;-79
2023/06/16 01:15:05;;;;;;;6.15;3.95;;;19.20;65.30;;;;;;5050513;28;20380;-79
2023/06/16 01:17:33;;;;;;;12.07;3.75;;;19.20;65.40;;;;;;5051658;28;20097;-78
2023/06/16 01:20:48;;;;;;;9.88;4.30;;;19.10;65.50;;;;;;5048757;28;20041;-78
2023/06/16 01:23:47;;;;;;;7.38;4.05;;;19.00;65.20;;;;;;5047968;28;20040;-78
2023/06/16 01:26:13;;;;;;;8.60;3.95;;;19.00;65.80;;;;;;5044181;28;20028;-77
2023/06/16 01:28:41;;;;;;;4.75;3.58;;;19.00;65.20;;;;;;5049380;28;20634;-78
2023/06/16 01:31:08;;;;;;;5.40;3.90;;;18.90;65.80;;;;;;5047545;28;20384;-79
2023/06/16 01:33:37;;;;;;;16.98;3.78;;;18.90;65.90;;;;;;5048534;28;20033;-78
2023/06/16 01:36:06;;;;;;;6.30;3.75;;;18.90;66.00;;;;;;5049262;28;20064;-78
2023/06/16 01:38:33;;;;;;;7.60;3.97;;;18.90;66.30;;;;;;5046848;28;20025;-79
2023/06/16 01:41:02;;;;;;;18.95;4.90;;;18.80;66.50;;;;;;5052175;28;20025;-78
2023/06/16 01:43:28;;;;;;;8.63;4.13;;;18.80;65.60;;;;;;5046608;28;20056;-79
2023/06/16 01:45:56;;;;;;;9.55;4.07;;;18.80;66.10;;;;;;5050040;28;20017;-77
2023/06/16 01:48:23;;;;;;;5.90;4.50;;;18.70;66.60;;;;;;5046200;28;20036;-78
2023/06/16 01:50:49;;;;;;;12.20;5.18;;;18.70;66.80;;;;;;5045262;28;20365;-77
2023/06/16 01:53:15;;;;;;;7.97;4.22;;;18.70;66.60;;;;;;5044224;28;20115;-78
2023/06/16 01:55:47;;;;;;;6.13;4.45;;;18.70;66.90;;;;;;5046662;28;20100;-78
2023/06/16 01:58:13;;;;;;;6.50;4.25;;;18.60;67.10;;;;;;5047051;28;20167;-77
2023/06/16 02:00:48;;;;;;;6.32;4.68;;;18.60;66.20;;;;;;5066696;28;20064;-78
2023/06/16 02:03:24;;;;;;;7.30;4.28;;;18.60;66.50;;;;;;5078584;28;20012;-78
2023/06/16 02:05:51;;;;;;;13.05;4.50;;;18.50;67.10;;;;;;5073577;28;20016;-78
2023/06/16 02:08:21;;;;;;;9.55;4.53;;;18.50;67.30;;;;;;5070842;28;20016;-78
2023/06/16 02:10:47;;;;;;;4.75;4.20;;;18.40;67.90;;;;;;5047069;28;20036;-79
2023/06/16 02:13:16;;;;;;;7.15;3.97;;;18.40;68.50;;;;;;5043640;28;20026;-78
2023/06/16 02:15:41;;;;;;;5.65;3.97;;;18.30;68.80;;;;;;5046412;28;20457;-78
2023/06/16 02:18:09;;;;;;;7.47;4.72;;;18.30;69.00;;;;;;5044752;28;20048;-78
2023/06/16 02:20:36;;;;;;;9.57;4.10;;;18.30;69.80;;;;;;5052875;28;20443;-79
2023/06/16 02:23:02;;;;;;;5.93;4.60;;;18.20;69.90;;;;;;5045667;28;20489;-79
2023/06/16 02:25:28;;;;;;;5.18;4.05;;;18.20;70.30;;;;;;5049950;28;20056;-78
2023/06/16 02:27:54;;;;;;;5.95;4.20;;;18.20;70.80;;;;;;5050186;28;20021;-79
2023/06/16 02:30:19;;;;;;;9.70;4.43;;;18.10;70.00;;;;;;5042502;28;20075;-78
2023/06/16 02:32:48;;;;;;;11.90;4.97;;;18.10;69.70;;;;;;5389432;22;20060;-79
2023/06/16 02:35:14;;;;;;;6.75;4.45;;;18.10;71.00;;;;;;5028606;28;20108;-78
2023/06/16 02:37:41;;;;;;;5.45;4.65;;;18.00;70.60;;;;;;5027095;28;20033;-79
2023/06/16 02:40:08;;;;;;;16.75;4.95;;;18.00;71.10;;;;;;5024093;28;20059;-78
2023/06/16 02:42:34;;;;;;;9.00;4.88;;;18.00;70.90;;;;;;5027859;28;20021;-78
2023/06/16 02:45:00;;;;;;;10.50;4.80;;;17.90;71.80;;;;;;5027030;28;20025;-79
2023/06/16 02:47:26;;;;;;;8.27;5.10;;;17.80;72.00;;;;;;5024442;28;20061;-79
2023/06/16 02:49:54;;;;;;;13.02;5.50;;;17.80;72.50;;;;;;5024644;28;20064;-79
2023/06/16 02:52:20;;;;;;;11.20;6.25;;;17.70;72.80;;;;;;5024518;28;20026;-78
2023/06/16 02:54:46;;;;;;;8.85;6.07;;;17.70;73.40;;;;;;5040901;28;20056;-78
2023/06/16 02:57:12;;;;;;;10.15;5.47;;;17.60;74.80;;;;;;5033669;28;20020;-79
2023/06/16 02:59:37;;;;;;;7.78;5.70;;;17.60;74.70;;;;;;5025297;28;20603;-79
2023/06/16 03:02:03;;;;;;;10.27;5.47;;;17.60;75.10;;;;;;5024955;28;20034;-79
2023/06/16 03:04:29;;;;;;;12.27;6.18;;;17.50;74.70;;;;;;5039779;28;20029;-79
2023/06/16 03:06:57;;;;;;;6.53;5.00;;;17.40;75.30;;;;;;5029727;28;20502;-79
2023/06/16 03:09:24;;;;;;;13.13;5.95;;;17.40;75.50;;;;;;5055316;28;20032;-79
2023/06/16 03:11:50;;;;;;;8.52;5.45;;;17.40;74.40;;;;;;5037823;28;20041;-79
2023/06/16 03:14:16;;;;;;;12.27;8.27;;;17.40;75.00;;;;;;5029711;28;20057;-79
2023/06/16 03:16:42;;;;;;;14.35;5.80;;;17.40;74.80;;;;;;5031693;28;20679;-78
2023/06/16 03:19:08;;;;;;;9.30;5.88;;;17.40;75.20;;;;;;5035175;28;20035;-78
2023/06/16 03:21:34;;;;;;;7.70;5.93;;;17.40;75.40;;;;;;5036053;28;20033;-77
2023/06/16 03:24:00;;;;;;;9.90;5.40;;;17.40;76.10;;;;;;5042413;28;20028;-77
2023/06/16 03:26:26;;;;;;;10.82;5.50;;;17.40;76.70;;;;;;5027443;28;20036;-77
2023/06/16 03:28:51;;;;;;;7.80;6.00;;;17.40;77.00;;;;;;5030564;28;20022;-77
2023/06/16 03:31:17;;;;;;;8.52;7.22;;;17.30;76.90;;;;;;5030968;28;20025;-77
2023/06/16 03:33:43;;;;;;;11.82;5.90;;;17.30;77.00;;;;;;5026432;28;20112;-78
2023/06/16 03:36:09;;;;;;;8.20;5.20;;;17.30;77.20;;;;;;5028523;28;20183;-77
2023/06/16 03:38:37;;;;;;;8.70;5.38;;;17.30;77.40;;;;;;5031148;28;20024;-77
2023/06/16 03:41:02;;;;;;;7.95;6.05;;;17.30;77.40;;;;;;5028444;28;20496;-77
2023/06/16 03:43:28;;;;;;;6.72;5.68;;;17.30;77.80;;;;;;5034217;28;20032;-77
2023/06/16 03:45:54;;;;;;;8.77;5.60;;;17.30;77.70;;;;;;5033181;28;20674;-77
2023/06/16 03:48:19;;;;;;;8.20;5.55;;;17.30;77.60;;;;;;5036311;28;20025;-77
2023/06/16 03:50:47;;;;;;;6.78;5.78;;;17.40;77.70;;;;;;5028986;28;20405;-77
2023/06/16 03:53:13;;;;;;;13.38;5.63;;;17.40;77.10;;;;;;5030864;28;20127;-77
2023/06/16 03:55:38;;;;;;;8.70;5.70;;;17.40;77.20;;;;;;5027751;28;20736;-77
2023/06/16 03:58:06;;;;;;;8.32;5.55;;;17.40;76.80;;;;;;5026250;28;20484;-77
2023/06/16 04:00:32;;;;;;;11.02;5.75;;;17.50;76.70;;;;;;5027033;28;20381;-77
2023/06/16 04:03:01;;;;;;;11.35;6.55;;;17.50;76.20;;;;;;5028628;28;20048;-79
2023/06/16 04:05:27;;;;;;;15.65;5.68;;;17.60;76.10;;;;;;5024764;28;20497;-77
2023/06/16 04:07:54;;;;;;;11.43;5.95;;;17.60;75.80;;;;;;5026719;28;20061;-77
2023/06/16 04:10:19;;;;;;;9.18;6.38;;;17.60;75.50;;;;;;5025394;28;20086;-77
2023/06/16 04:12:45;;;;;;;12.95;6.68;;;17.60;75.10;;;;;;5025243;28;20417;-80
2023/06/16 04:15:11;;;;;;;7.53;5.63;;;17.60;74.70;;;;;;5027292;28;20018;-77
2023/06/16 04:17:37;;;;;;;9.38;5.72;;;17.70;74.60;;;;;;5027246;28;20032;-77
2023/06/16 04:20:09;;;;;;;13.05;6.05;;;17.70;74.70;;;;;;5032823;28;20040;-80
2023/06/16 04:22:35;;;;;;;7.25;5.70;;;17.80;74.60;;;;;;5024085;28;20053;-78
2023/06/16 04:25:00;;;;;;;12.65;6.03;;;17.80;74.30;;;;;;5027521;28;20452;-78
2023/06/16 04:27:28;;;;;;;9.77;5.97;;;17.80;74.10;;;;;;5027393;28;20116;-78
2023/06/16 04:29:54;;;;;;;10.57;5.93;;;17.90;74.60;;;;;;5023824;28;20064;-77
2023/06/16 04:32:20;;;;;;;9.63;6.10;;;17.90;73.60;;;;;;5025747;28;20028;-78
2023/06/16 04:34:49;;;;;;;8.85;5.25;;;18.00;73.70;;;;;;5025934;28;20035;-78
2023/06/16 04:37:16;;;;;;;8.63;6.13;;;18.00;73.70;;;;;;5049687;28;20037;-78
2023/06/16 04:39:42;;;;;;;8.07;5.63;;;18.10;73.90;;;;;;5025546;28;20437;-78
2023/06/16 04:42:09;;;;;;;12.55;6.22;;;18.10;74.00;;;;;;5026044;28;20024;-78
2023/06/16 04:44:36;;;;;;;8.57;5.68;;;18.10;74.30;;;;;;5028839;28;20485;-78
2023/06/16 04:47:02;;;;;;;7.50;5.60;;;18.10;74.20;;;;;;5029727;28;20465;-77
2023/06/16 04:49:27;;;;;;;9.77;6.20;;;18.20;74.60;;;;;;5028593;28;20037;-77
2023/06/16 04:51:53;;;;;;;11.43;5.65;;;18.20;74.80;;;;;;5027167;28;20075;-77
2023/06/16 04:54:19;;;;;;;11.48;6.18;;;18.20;74.90;;;;;;5024974;28;20468;-78
2023/06/16 04:56:47;;;;;;;11.07;6.45;;;18.20;74.90;;;;;;5027919;28;20022;-77
2023/06/16 04:59:13;;;;;;;11.77;5.55;;;18.20;74.90;;;;;;5023566;28;20037;-77
2023/06/16 05:01:39;;;;;;;10.57;5.95;;;18.30;74.70;;;;;;5025236;28;20426;-77
2023/06/16 05:04:05;;;;;;;9.02;5.45;;;18.40;74.50;;;;;;5034156;28;20029;-78
2023/06/16 05:06:35;;;;;;;10.50;5.72;;;18.40;74.00;;;;;;5031645;28;20128;-78
2023/06/16 05:09:01;;;;;;;11.88;6.13;;;18.50;74.10;;;;;;5055878;28;20060;-78
2023/06/16 05:11:26;;;;;;;10.88;5.72;;;18.60;74.00;;;;;;5028746;28;20025;-78
2023/06/16 05:13:52;;;;;;;12.75;6.05;;;18.70;73.30;;;;;;5025258;28;20021;-76
2023/06/16 05:16:17;;;;;;;8.93;5.85;;;18.70;73.10;;;;;;5025292;28;20026;-77
2023/06/16 05:18:45;;;;;;;8.90;5.85;;;18.80;72.80;;;;;;5025454;28;20168;-77
2023/06/16 05:21:11;;;;;;;10.95;5.85;;;18.90;72.60;;;;;;5027862;28;20137;-77
2023/06/16 05:23:36;;;;;;;16.67;5.85;;;18.90;72.20;;;;;;5028150;28;20104;-77
2023/06/16 05:26:05;;;;;;;9.00;5.55;;;19.00;72.10;;;;;;5026541;28;20017;-77
2023/06/16 05:28:31;;;;;;;13.10;6.32;;;19.20;71.90;;;;;;5025068;28;20428;-77
2023/06/16 05:30:56;;;;;;;10.43;6.57;;;19.20;71.30;;;;;;5024087;28;20078;-77
2023/06/16 05:33:22;;;;;;;9.00;6.07;;;19.40;71.10;;;;;;5024651;28;20029;-77
2023/06/16 05:35:48;;;;;;;10.82;6.40;;;19.50;71.10;;;;;;5025581;28;20073;-79
2023/06/16 05:38:13;;;;;;;9.75;5.95;;;19.60;70.80;;;;;;5026046;28;20386;-78
2023/06/16 05:40:39;;;;;;;10.05;6.55;;;19.70;71.10;;;;;;5024176;28;20035;-78
2023/06/16 05:43:05;;;;;;;11.05;6.35;;;19.70;71.40;;;;;;5025769;28;20034;-78
2023/06/16 05:45:30;;;;;;;12.05;6.50;;;19.80;71.60;;;;;;5023320;28;20460;-78
2023/06/16 05:47:56;;;;;;;7.18;6.28;;;19.90;71.40;;;;;;5024509;28;20072;-78
2023/06/16 05:50:21;;;;;;;8.70;6.18;;;20.00;70.70;;;;;;5039074;28;20469;-78
2023/06/16 05:52:47;;;;;;;12.10;6.28;;;20.10;70.20;;;;;;5030364;28;20033;-78
2023/06/16 05:55:13;;;;;;;11.00;5.90;;;20.20;69.80;;;;;;5029015;28;20482;-77
2023/06/16 05:57:39;;;;;;;9.95;6.40;;;20.30;69.60;;;;;;5028357;28;20108;-78
2023/06/16 06:00:09;;;;;;;10.55;5.97;;;20.30;69.30;;;;;;5026270;28;20139;-78
2023/06/16 06:02:35;;;;;;;16.08;7.13;;;20.40;69.00;;;;;;5035580;28;20686;-78
2023/06/16 06:05:00;;;;;;;12.65;8.73;;;20.50;71.10;;;;;;5026760;28;20021;-78
2023/06/16 06:07:26;;;;;;;14.23;9.60;;;20.40;74.40;;;;;;5025427;28;20033;-78
2023/06/16 06:09:52;;;;;;;21.65;11.18;;;20.40;75.20;;;;;;5017426;28;20178;-79
2023/06/16 06:12:17;;;;;;;16.83;12.18;;;20.40;74.70;;;;;;5023047;28;20388;-79
2023/06/16 06:14:43;;;;;;;21.85;11.38;;;20.50;74.00;;;;;;5020486;28;20112;-76
2023/06/16 06:17:11;;;;;;;16.30;10.60;;;20.40;73.40;;;;;;5023791;28;20104;-75
2023/06/16 06:19:37;;;;;;;18.75;9.32;;;20.50;73.60;;;;;;5022446;28;20049;-79
2023/06/16 06:22:03;;;;;;;17.17;8.65;;;20.70;74.40;;;;;;5031439;28;20389;-79
2023/06/16 06:24:29;;;;;;;19.30;9.20;;;20.80;76.00;;;;;;5022575;28;20029;-76
2023/06/16 06:26:56;;;;;;;9.75;8.25;;;20.80;75.70;;;;;;5019780;28;20028;-76
2023/06/16 06:29:22;;;;;;;12.45;8.35;;;20.70;76.00;;;;;;5023993;28;20285;-76
2023/06/16 06:31:48;;;;;;;12.85;8.13;;;20.60;76.10;;;;;;5023105;28;20025;-75
2023/06/16 06:34:13;;;;;;;15.32;8.40;;;20.60;75.50;;;;;;5033198;28;20485;-75
2023/06/16 06:36:39;;;;;;;18.55;9.50;;;20.60;74.90;;;;;;5022722;28;20024;-78
2023/06/16 06:39:05;;;;;;;16.83;9.07;;;20.70;74.30;;;;;;5036956;28;20037;-77
2023/06/16 06:41:31;;;;;;;14.55;7.90;;;20.90;73.80;;;;;;5050169;28;20269;-74
2023/06/16 06:43:57;;;;;;;16.50;8.77;;;20.90;72.20;;;;;;5044653;28;20088;-76
2023/06/16 06:46:23;;;;;;;10.32;7.18;;;21.00;71.90;;;;;;5036326;28;20029;-76
2023/06/16 06:48:48;;;;;;;13.15;7.97;;;21.10;71.40;;;;;;5035613;28;20111;-77
2023/06/16 06:51:19;;;;;;;21.95;8.13;;;21.10;69.70;;;;;;5029233;28;20021;-77
2023/06/16 06:53:48;;;;;;;10.07;7.28;;;21.30;69.40;;;;;;5025287;28;20025;-77
2023/06/16 06:56:15;;;;;;;15.18;8.38;;;21.40;69.10;;;;;;5027688;28;20036;-84
2023/06/16 06:58:41;;;;;;;13.48;8.35;;;21.50;69.70;;;;;;5025544;28;20095;-78
2023/06/16 07:01:09;;;;;;;65.03;28.23;;;21.50;69.70;;;;;;5037412;28;20041;-76
2023/06/16 07:03:37;;;;;;;591.85;301.27;;;21.60;69.20;;;;;;5044729;28;20107;-78
2023/06/16 07:06:05;;;;;;;13.05;8.25;;;21.70;65.20;;;;;;5038460;28;20076;-78
2023/06/16 07:08:31;;;;;;;16.05;8.00;;;21.80;67.10;;;;;;5039240;28;20556;-83
2023/06/16 07:10:58;;;;;;;11.73;7.20;;;21.80;68.00;;;;;;5043269;28;20204;-84
2023/06/16 07:13:24;;;;;;;9.00;6.53;;;21.80;67.50;;;;;;5049470;28;20032;-86
2023/06/16 07:15:50;;;;;;;8.60;6.68;;;21.80;66.00;;;;;;5038540;28;20024;-75
2023/06/16 07:18:16;;;;;;;10.48;6.82;;;21.80;66.50;;;;;;5035733;28;20025;-78
2023/06/16 07:20:44;;;;;;;12.38;6.63;;;21.90;66.50;;;;;;5043226;28;20159;-78
2023/06/16 07:23:10;;;;;;;6.90;6.18;;;21.90;66.30;;;;;;5040433;28;20078;-80
2023/06/16 07:25:38;;;;;;;71.70;34.65;;;22.00;65.00;;;;;;5038999;28;20033;-80
2023/06/16 07:28:05;;;;;;;12.05;6.80;;;22.00;65.00;;;;;;5045220;28;20033;-90
2023/06/16 07:30:30;;;;;;;9.13;5.70;;;22.20;65.20;;;;;;5051705;28;20017;-86
2023/06/16 07:33:09;;;;;;;;;;;;;;;;;;;;;
2023/06/16 07:35:39;;;;;;;6.32;5.13;;;22.40;63.20;;;;;;5051652;28;20064;-87
2023/06/16 07:38:08;;;;;;;5.35;4.53;;;22.60;61.30;;;;;;5052583;28;20379;-81
2023/06/16 07:40:46;;;;;;;;;;;;;;;;;;;;;
2023/06/16 07:43:12;;;;;;;7.85;4.93;;;23.00;60.30;;;;;;5049245;28;20029;-79
2023/06/16 07:45:40;;;;;;;118.70;54.05;;;23.20;59.70;;;;;;5045615;28;20103;-76
2023/06/16 07:48:09;;;;;;;6.15;4.90;;;23.30;59.20;;;;;;5047400;28;20049;-81
2023/06/16 07:50:42;;;;;;;15.52;5.78;;;23.60;59.00;;;;;;5046098;28;20035;-75
2023/06/16 07:53:08;;;;;;;7.40;5.57;;;23.90;58.70;;;;;;5039815;28;20078;-79
2023/06/16 07:55:34;;;;;;;8.52;4.63;;;24.10;57.90;;;;;;5055141;28;20541;-78
2023/06/16 07:58:00;;;;;;;5.93;5.32;;;24.20;56.80;;;;;;5053880;28;20031;-78
2023/06/16 08:00:26;;;;;;;9.32;5.43;;;24.40;56.00;;;;;;5046794;28;20112;-79
2023/06/16 08:02:51;;;;;;;8.13;5.03;;;24.50;54.50;;;;;;5047275;28;20023;-78
2023/06/16 08:05:20;;;;;;;6.50;5.05;;;24.80;53.60;;;;;;5044605;28;20400;-81
2023/06/16 08:07:56;;;;;;;4.15;3.85;;;24.80;53.00;;;;;;5048913;28;20535;-78
2023/06/16 08:10:23;;;;;;;9.32;4.72;;;25.00;51.90;;;;;;5045436;28;20045;-78
2023/06/16 08:12:51;;;;;;;7.78;4.55;;;25.30;50.30;;;;;;5049925;28;20124;-81
2023/06/16 08:15:18;;;;;;;6.78;5.07;;;25.60;50.20;;;;;;5046380;28;20013;-76
2023/06/16 08:17:44;;;;;;;9.82;6.10;;;25.80;49.70;;;;;;5047622;28;20488;-76
2023/06/16 08:20:13;;;;;;;7.68;3.97;;;25.70;50.50;;;;;;5041167;28;20414;-77
2023/06/16 08:22:39;;;;;;;6.32;4.00;;;26.10;49.50;;;;;;5033485;28;20634;-79
2023/06/16 08:25:05;;;;;;;4.78;4.22;;;26.50;49.00;;;;;;5038684;28;20041;-79
2023/06/16 08:27:30;;;;;;;4.13;3.78;;;26.90;48.70;;;;;;5021480;28;20764;-79
2023/06/16 08:29:57;;;;;;;3.95;3.63;;;26.90;49.10;;;;;;5036709;28;20037;-79
2023/06/16 08:32:24;;;;;;;4.45;4.05;;;27.00;47.60;;;;;;5039583;28;20056;-81
2023/06/16 08:34:50;;;;;;;4.10;3.75;;;27.00;46.80;;;;;;5043586;28;20083;-82
2023/06/16 08:37:17;;;;;;;5.18;4.55;;;27.30;46.50;;;;;;5039858;28;20044;-79
2023/06/16 08:39:46;;;;;;;5.35;4.35;;;27.50;46.70;;;;;;5018655;28;20033;-81
2023/06/16 08:42:12;;;;;;;4.68;4.05;;;27.90;47.10;;;;;;5047377;28;20524;-82
2023/06/16 08:44:39;;;;;;;8.40;4.40;;;28.40;47.30;;;;;;5048798;28;20151;-82
2023/06/16 08:47:10;;;;;;;8.50;4.35;;;28.90;45.90;;;;;;5043313;28;20029;-78
2023/06/16 08:49:39;;;;;;;4.38;3.83;;;29.10;43.00;;;;;;5049408;28;20024;-76
2023/06/16 08:52:08;;;;;;;4.07;3.72;;;29.10;42.70;;;;;;5056700;28;20048;-77
2023/06/16 08:54:48;;;;;;;7.35;3.38;;;29.00;42.50;;;;;;5054870;28;20033;-77
2023/06/16 08:57:14;;;;;;;5.28;4.05;;;29.10;43.60;;;;;;5042717;28;20021;-78
2023/06/16 08:59:44;;;;;;;6.18;3.58;;;29.50;43.00;;;;;;5044852;28;20166;-77
2023/06/16 09:02:11;;;;;;;11.00;4.00;;;29.80;43.20;;;;;;5038627;28;20020;-77
2023/06/16 09:04:37;;;;;;;4.93;3.75;;;30.40;44.40;;;;;;5042141;28;20589;-77
2023/06/16 09:07:10;;;;;;;6.18;4.38;;;30.80;41.80;;;;;;5041242;28;20029;-77
2023/06/16 09:09:37;;;;;;;6.65;4.22;;;30.70;40.90;;;;;;5038227;28;20029;-75
2023/06/16 09:12:03;;;;;;;7.80;3.88;;;30.60;41.70;;;;;;5043570;28;20029;-74
2023/06/16 09:14:37;;;;;;;7.47;3.78;;;30.70;41.40;;;;;;5042687;28;20032;-74
2023/06/16 09:17:07;;;;;;;10.68;6.82;;;30.90;40.90;;;;;;5045178;28;20024;-73
2023/06/16 09:19:47;;;;;;;11.82;6.53;;;31.30;40.10;;;;;;5041156;28;20048;-76
2023/06/16 09:22:16;;;;;;;4.15;3.50;;;31.40;39.50;;;;;;5041809;28;20037;-76
2023/06/16 09:24:42;;;;;;;6.40;4.13;;;31.40;39.80;;;;;;5041956;28;20415;-76
2023/06/16 09:27:08;;;;;;;4.63;4.05;;;31.50;39.60;;;;;;5044836;28;20028;-78
2023/06/16 09:29:36;;;;;;;5.00;3.60;;;31.60;38.80;;;;;;5040596;28;20082;-76
2023/06/16 09:32:07;;;;;;;4.60;3.97;;;31.20;39.60;;;;;;5040473;28;20009;-78
2023/06/16 09:34:33;;;;;;;6.40;3.50;;;31.10;40.00;;;;;;5046729;28;20123;-77
2023/06/16 09:36:59;;;;;;;5.75;3.97;;;31.20;39.80;;;;;;5045936;28;20116;-78
2023/06/16 09:39:29;;;;;;;3.80;3.50;;;31.50;39.60;;;;;;5043770;28;20307;-75
2023/06/16 09:41:56;;;;;;;5.88;3.60;;;31.40;40.10;;;;;;5032017;28;20032;-77
2023/06/16 09:44:24;;;;;;;3.60;3.30;;;31.90;39.70;;;;;;5024043;28;20086;-78
2023/06/16 09:46:53;;;;;;;4.63;4.10;;;32.00;38.00;;;;;;5027854;28;20701;-77
2023/06/16 09:49:24;;;;;;;6.82;3.50;;;32.30;38.70;;;;;;5028163;28;20026;-77
2023/06/16 09:51:55;;;;;;;5.10;3.70;;;32.10;37.80;;;;;;5027007;28;20421;-78
2023/06/16 09:54:34;;;;;;;6.03;3.67;;;31.80;38.80;;;;;;5029715;28;20076;-83
2023/06/16 09:57:01;;;;;;;3.78;3.40;;;31.90;37.60;;;;;;5032120;28;20036;-77
2023/06/16 09:59:40;;;;;;;6.43;3.60;;;32.00;37.50;;;;;;5027249;28;20460;-78
2023/06/16 10:02:08;;;;;;;6.03;3.97;;;31.30;38.40;;;;;;5027486;28;20044;-77
2023/06/16 10:04:35;;;;;;;4.78;4.25;;;31.80;38.30;;;;;;5034310;28;20132;-79
2023/06/16 10:07:06;;;;;;;5.85;3.90;;;32.10;37.90;;;;;;5032342;28;20029;-77
2023/06/16 10:09:42;;;;;;;5.00;3.85;;;32.40;38.00;;;;;;5025288;28;20571;-80
2023/06/16 10:12:11;;;;;;;5.65;4.07;;;32.50;36.70;;;;;;5023914;28;20086;-77
2023/06/16 10:14:37;;;;;;;6.22;4.43;;;32.50;36.00;;;;;;5025722;28;20024;-85
2023/06/16 10:17:06;;;;;;;7.05;4.03;;;32.40;35.90;;;;;;5027949;28;20421;-83
2023/06/16 10:19:35;;;;;;;5.68;3.60;;;32.70;37.10;;;;;;5026573;28;20025;-80
2023/06/16 10:22:02;;;;;;;89.13;42.28;;;32.70;36.80;;;;;;5022356;28;20432;-79
2023/06/16 10:24:27;;;;;;;65.20;31.63;;;33.30;36.60;;;;;;5030728;28;20053;-78
2023/06/16 10:26:53;;;;;;;9.93;3.97;;;33.90;35.50;;;;;;5025994;28;20714;-77
2023/06/16 10:29:20;;;;;;;20.75;12.90;;;34.30;35.20;;;;;;5025519;28;20030;-78
2023/06/16 10:31:49;;;;;;;5.28;3.72;;;34.20;35.40;;;;;;5017946;28;20167;-77
2023/06/16 10:34:19;;;;;;;7.40;4.63;;;34.00;35.20;;;;;;5024544;28;20284;-77
2023/06/16 10:36:46;;;;;;;9.20;4.57;;;34.30;35.50;;;;;;5021998;28;20144;-76
2023/06/16 10:39:16;;;;;;;4.63;4.22;;;34.50;33.80;;;;;;5021473;28;20067;-76
2023/06/16 10:41:51;;;;;;;4.47;4.18;;;34.60;33.60;;;;;;5024501;28;20664;-77
2023/06/16 10:44:25;;;;;;;4.50;4.07;;;34.60;33.60;;;;;;5036088;28;20402;-77
2023/06/16 10:47:11;;;;;;;4.78;4.07;;;34.90;33.80;;;;;;5023751;28;20022;-78
2023/06/16 10:50:02;;;;;;;5.35;3.72;;;34.80;33.70;;;;;;5028283;28;20045;-75
2023/06/16 10:52:30;;;;;;;4.93;3.67;;;34.60;33.50;;;;;;5024947;28;20509;-76
2023/06/16 10:54:57;;;;;;;6.30;4.20;;;34.70;33.00;;;;;;5029038;28;20132;-83
2023/06/16 10:57:26;;;;;;;5.72;4.00;;;35.00;34.00;;;;;;5033978;28;20257;-78
2023/06/16 11:00:10;;;;;;;6.28;4.40;;;35.30;33.50;;;;;;5032024;28;20030;-76
2023/06/16 11:02:56;;;;;;;5.45;4.00;;;35.50;33.80;;;;;;5028678;28;20441;-79
2023/06/16 11:05:25;;;;;;;4.82;4.13;;;35.40;33.00;;;;;;5027193;28;20512;-80
2023/06/16 11:08:05;;;;;;;5.18;4.78;;;35.10;33.30;;;;;;5021230;28;20221;-76
2023/06/16 11:10:50;;;;;;;6.50;4.20;;;34.60;32.80;;;;;;5035673;28;20059;-77
2023/06/16 11:13:21;;;;;;;4.63;4.22;;;34.00;32.90;;;;;;5044306;28;20923;-78
2023/06/16 11:15:49;;;;;;;4.32;3.85;;;34.00;33.60;;;;;;5051885;28;20048;-78
2023/06/16 11:18:16;;;;;;;11.82;4.55;;;33.40;34.40;;;;;;5049929;28;20049;-78
2023/06/16 11:20:41;;;;;;;16.58;8.50;;;33.40;35.50;;;;;;5048696;28;20295;-80
2023/06/16 11:23:07;;;;;;;4.70;4.30;;;33.30;35.20;;;;;;5053693;28;20115;-77
2023/06/16 11:25:34;;;;;;;4.80;4.13;;;33.60;35.70;;;;;;5048142;28;20021;-77
2023/06/16 11:28:00;;;;;;;4.88;4.47;;;33.60;35.20;;;;;;5049666;28;20033;-78
2023/06/16 11:30:28;;;;;;;5.30;4.00;;;33.90;35.40;;;;;;5050096;28;20022;-79
2023/06/16 11:32:57;;;;;;;5.78;4.32;;;33.70;35.90;;;;;;5046109;28;20025;-77
2023/06/16 11:35:32;;;;;;;8.85;5.60;;;33.60;35.40;;;;;;5046163;28;20016;-77
2023/06/16 11:37:59;;;;;;;12.65;6.38;;;33.90;34.80;;;;;;5046946;28;20075;-77
2023/06/16 11:40:31;;;;;;;11.98;3.88;;;33.90;34.40;;;;;;5049287;28;20435;-78
2023/06/16 11:43:05;;;;;;;4.00;3.65;;;33.70;34.30;;;;;;5043032;28;20059;-77
2023/06/16 11:45:37;;;;;;;4.53;4.13;;;33.40;34.20;;;;;;5046504;28;20415;-77
2023/06/16 11:48:04;;;;;;;4.47;3.92;;;33.60;34.20;;;;;;5049150;28;20067;-77
2023/06/16 11:50:31;;;;;;;4.10;3.70;;;33.90;33.50;;;;;;5051939;28;20029;-79
2023/06/16 11:53:02;;;;;;;6.57;4.15;;;34.30;32.90;;;;;;5050295;28;20029;-78
2023/06/16 11:55:31;;;;;;;7.40;4.57;;;34.30;34.00;;;;;;5035304;28;20056;-77
2023/06/16 11:57:59;;;;;;;6.38;5.78;;;33.90;35.50;;;;;;5048921;28;20477;-77
2023/06/16 12:00:27;;;;;;;4.93;4.20;;;34.00;35.30;;;;;;5046682;28;20020;-77
2023/06/16 12:02:55;;;;;;;4.90;4.50;;;33.60;33.80;;;;;;5050535;28;20028;-76
2023/06/16 12:05:31;;;;;;;9.38;4.18;;;33.40;33.30;;;;;;5046918;28;20389;-77
2023/06/16 12:07:56;;;;;;;6.85;4.68;;;33.60;34.80;;;;;;5034024;28;20043;-78
2023/06/16 12:10:23;;;;;;;5.70;3.90;;;33.80;34.50;;;;;;5004968;28;20048;-78
2023/06/16 12:12:52;;;;;;;4.88;4.35;;;33.90;34.60;;;;;;5025312;28;20112;-77
2023/06/16 12:15:23;;;;;;;6.13;4.60;;;33.90;34.50;;;;;;5023577;28;20021;-78
2023/06/16 12:17:49;;;;;;;4.95;4.47;;;33.90;34.00;;;;;;5023782;28;20025;-81
2023/06/16 12:20:17;;;;;;;5.30;3.92;;;33.70;34.20;;;;;;5031028;28;20013;-82
2023/06/16 12:22:46;;;;;;;8.07;4.68;;;33.50;34.30;;;;;;5024960;28;20022;-80
2023/06/16 12:25:16;;;;;;;6.28;3.72;;;33.50;33.70;;;;;;5031118;28;20030;-83
2023/06/16 12:27:49;;;;;;;7.03;4.18;;;33.80;33.50;;;;;;5026781;28;20071;-80
2023/06/16 12:30:15;;;;;;;8.13;4.63;;;34.40;33.30;;;;;;5029811;28;20653;-84
2023/06/16 12:32:42;;;;;;;5.10;4.60;;;34.70;33.30;;;;;;5026269;28;20507;-83
2023/06/16 12:35:12;;;;;;;4.63;4.20;;;34.50;32.90;;;;;;5028021;28;20222;-77
2023/06/16 12:37:43;;;;;;;6.13;3.78;;;34.40;32.40;;;;;;5023899;28;20155;-83
2023/06/16 12:40:14;;;;;;;4.40;4.10;;;34.30;33.00;;;;;;5025707;28;20026;-80
2023/06/16 12:42:43;;;;;;;4.30;4.00;;;34.20;33.80;;;;;;5025877;28;20113;-78
2023/06/16 12:45:09;;;;;;;4.13;3.80;;;34.10;33.40;;;;;;5024707;28;20021;-79
2023/06/16 12:47:35;;;;;;;10.85;3.95;;;34.30;34.00;;;;;;5024802;28;20021;-84
2023/06/16 12:50:05;;;;;;;5.03;4.53;;;34.50;33.80;;;;;;5030668;28;20021;-80